createdAt,value
2019-01-15T05:03:51.918Z,100591.5
2019-01-15T05:07:19.791Z,100596
2019-01-15T05:10:48.752Z,100584.33
2019-01-15T05:14:16.641Z,100581.44
2019-01-15T05:17:44.519Z,100590.06
2019-01-15T05:21:12.402Z,100582.06
2019-01-15T05:24:40.299Z,100572.83
2019-01-15T05:28:08.246Z,100562.81
2019-01-15T05:31:37.176Z,100551.7
2019-01-15T05:35:05.065Z,100537.25
2019-01-15T05:38:33.943Z,100539.35
2019-01-15T05:42:01.835Z,100539.75
2019-01-15T05:45:30.408Z,100537.07
2019-01-15T05:48:59.451Z,100534.14
2019-01-15T05:52:28.335Z,100534.69
2019-01-15T05:55:57.194Z,100532.07
2019-01-15T05:59:25.082Z,100531.7
2019-01-15T06:02:52.963Z,100512.75
2019-01-15T06:06:20.874Z,100505.04
2019-01-15T06:09:48.752Z,100512.48
2019-01-15T06:13:16.889Z,100503.78
2019-01-15T06:16:44.770Z,100506.46
2019-01-15T06:20:12.666Z,100489.81
2019-01-15T06:23:40.561Z,100495.96
2019-01-15T06:27:08.439Z,100498.89
2019-01-15T06:30:36.329Z,100492.12
2019-01-15T06:34:04.343Z,100483.86
2019-01-15T06:37:32.210Z,100497.71
2019-01-15T06:41:00.109Z,100494.78
2019-01-15T06:44:28.049Z,100497.87
2019-01-15T06:47:55.956Z,100506.26
2019-01-15T06:51:23.821Z,100489.57
2019-01-15T06:54:51.721Z,100488.53
2019-01-15T06:58:19.679Z,100493.75
2019-01-15T07:01:47.558Z,100498.14
2019-01-15T07:05:16.432Z,100506.9
2019-01-15T07:08:45.318Z,100502.46
2019-01-15T07:12:13.192Z,100523.36
2019-01-15T07:15:41.088Z,100521.06
2019-01-15T07:19:09.053Z,100529.42
2019-01-15T07:22:36.933Z,100529.07
2019-01-15T07:26:05.825Z,100528.15
2019-01-15T07:29:33.718Z,100521.53
2019-01-15T07:33:01.589Z,100519.1
2019-01-15T07:36:29.476Z,100522.72
2019-01-15T07:39:57.448Z,100514.43
2019-01-15T07:43:25.318Z,100510.85
2019-01-15T07:47:00.239Z,100507.87
2019-01-15T07:50:28.129Z,100507.58
2019-01-15T07:53:56.009Z,100513.57
2019-01-15T07:57:24.081Z,100527.85
2019-01-15T08:00:51.890Z,100520.35
2019-01-15T08:04:19.764Z,100525.68
2019-01-15T08:07:47.648Z,100518.46
2019-01-15T08:11:15.544Z,100511.46
2019-01-15T08:14:43.412Z,100509.65
2019-01-15T08:18:11.305Z,100526.96
2019-01-15T08:21:39.298Z,100527.26
2019-01-15T08:25:07.170Z,100537.25
2019-01-15T08:28:35.063Z,100541.18
2019-01-15T08:32:02.966Z,100544.51
2019-01-15T08:35:30.860Z,100546.09
2019-01-15T08:38:58.731Z,100549.93
2019-01-15T08:42:26.751Z,100558.39
2019-01-15T08:45:55.837Z,100556.89
2019-01-15T08:49:23.720Z,100557.28
2019-01-15T08:52:51.621Z,100563.78
2019-01-15T08:56:19.716Z,100559.92
2019-01-15T08:59:47.599Z,100559.7
2019-01-15T09:03:16.595Z,100561.46
2019-01-15T09:06:44.465Z,100550.04
2019-01-15T09:10:14.358Z,100570.78
2019-01-15T09:13:42.267Z,100555.75
2019-01-15T09:17:12.151Z,100558.5
2019-01-15T09:20:40.027Z,100552
2019-01-15T09:24:09.005Z,100550.72
2019-01-15T09:27:36.909Z,100566.27
2019-01-15T09:31:04.788Z,100563.12
2019-01-15T09:34:32.684Z,100573.78
2019-01-15T09:38:00.571Z,100584.21
2019-01-15T09:41:28.448Z,100566.21
2019-01-15T09:44:56.423Z,100561.15
2019-01-15T09:48:25.306Z,100561.44
2019-01-15T09:51:53.182Z,100559.64
2019-01-15T09:55:21.080Z,100556.6
2019-01-15T09:58:48.973Z,100548.61
2019-01-15T10:02:17.841Z,100553.92
2019-01-15T10:05:45.837Z,100550.62
2019-01-15T10:09:13.728Z,100549.76
2019-01-15T10:12:41.598Z,100548.71
2019-01-15T10:16:11.190Z,100537.19
2019-01-15T10:19:39.360Z,100542.65
2019-01-15T10:23:08.236Z,100535.6
2019-01-15T10:26:36.213Z,100528.03
2019-01-15T10:30:04.128Z,100535.01
2019-01-15T10:33:31.995Z,100544.21
2019-01-15T10:36:59.896Z,100549.57
2019-01-15T10:40:27.787Z,100535.23
2019-01-15T10:43:56.654Z,100531.36
2019-01-15T10:47:25.602Z,100519.36
2019-01-15T10:50:53.499Z,100509.89
2019-01-15T10:54:21.366Z,100503.48
2019-01-15T10:57:50.238Z,100507.2
2019-01-15T11:01:18.128Z,100516.67
2019-01-15T11:04:46.003Z,100499.06
2019-01-15T11:08:14.055Z,100494.18
2019-01-15T11:11:41.885Z,100489.31
2019-01-15T11:15:09.759Z,100490.95
2019-01-15T11:18:37.645Z,100485.93
2019-01-15T11:22:05.537Z,100487.89
2019-01-15T11:25:33.405Z,100475.37
2019-01-15T11:29:01.295Z,100468.91
2019-01-15T11:32:29.295Z,100465.71
2019-01-15T11:35:57.177Z,100448.25
2019-01-15T11:39:25.064Z,100444.7
2019-01-15T11:42:52.951Z,100431.93
2019-01-15T11:46:20.822Z,100419
2019-01-15T11:49:48.717Z,100409.47
2019-01-15T11:53:16.692Z,100395.07
2019-01-15T11:56:44.567Z,100390.45
2019-01-15T12:00:12.462Z,100382.81
2019-01-15T12:03:40.353Z,100378.07
2019-01-15T12:07:08.226Z,100368.8
2019-01-15T12:10:36.123Z,100374.77
2019-01-15T12:14:04.137Z,100399.09
2019-01-15T12:17:31.985Z,100357.64
2019-01-15T12:20:59.866Z,100349.87
2019-01-15T12:24:27.758Z,100351.57
2019-01-15T12:27:55.626Z,100346.03
2019-01-15T12:31:23.514Z,100336.68
2019-01-15T12:34:51.413Z,100324.24
2019-01-15T12:38:19.369Z,100330.84
2019-01-15T12:41:47.264Z,100312.67
2019-01-15T12:45:18.290Z,100305.31
2019-01-15T12:48:46.011Z,100298.46
2019-01-15T12:52:13.903Z,100299.21
2019-01-15T12:55:41.790Z,100297.4
2019-01-15T12:59:09.756Z,100290
2019-01-15T13:02:37.651Z,100301.26
2019-01-15T13:06:05.544Z,100286.62
2019-01-15T13:09:33.418Z,100285.67
2019-01-15T13:13:01.311Z,100270.72
2019-01-15T13:16:29.202Z,100262.79
2019-01-15T13:19:57.168Z,100266.32
2019-01-15T13:23:25.064Z,100254.01
2019-01-15T13:26:52.953Z,100242.33
2019-01-15T13:30:20.826Z,100244.56
2019-01-15T13:33:48.710Z,100244.42
2019-01-15T13:37:16.600Z,100244.9
2019-01-15T13:40:44.583Z,100234.78
2019-01-15T13:44:12.435Z,100217.85
2019-01-15T13:47:40.323Z,100231.07
2019-01-15T13:51:08.199Z,100222.57
2019-01-15T13:54:36.090Z,100214.81
2019-01-15T13:58:03.987Z,100202.75
2019-01-15T14:01:31.856Z,100197.14
2019-01-15T14:05:00.828Z,100195.57
2019-01-15T14:08:28.718Z,100184.82
2019-01-15T14:11:56.592Z,100206.4
2019-01-15T14:15:24.493Z,100198.39
2019-01-15T14:18:52.398Z,100195.05
2019-01-15T14:22:20.274Z,100187.84
2019-01-15T14:25:48.254Z,100188.75
2019-01-15T14:29:16.154Z,100160.79
2019-01-15T14:32:44.026Z,100175.67
2019-01-15T14:36:11.911Z,100180.39
2019-01-15T14:39:39.804Z,100149.08
2019-01-15T14:43:07.671Z,100146.57
2019-01-15T14:46:36.459Z,100143.77
2019-01-15T14:50:04.360Z,100152.96
2019-01-15T14:53:32.972Z,100131.25
2019-01-15T14:57:00.870Z,100138.05
2019-01-15T15:00:28.752Z,100144.64
2019-01-15T15:03:56.992Z,100149.82
2019-01-15T15:07:24.982Z,100126.21
2019-01-15T15:10:52.851Z,100122.68
2019-01-15T15:14:20.986Z,100107.1
2019-01-15T15:17:48.859Z,100123
2019-01-15T15:21:16.748Z,100101.42
2019-01-15T15:24:44.645Z,100134.33
2019-01-15T15:28:12.517Z,100101.65
2019-01-15T15:31:40.467Z,100116.26
2019-01-15T15:35:08.362Z,100102.61
2019-01-15T15:38:36.248Z,100120.4
2019-01-15T15:42:05.137Z,100105.45
2019-01-15T15:45:33.056Z,100102.71
2019-01-15T15:49:00.951Z,100097.99
2019-01-15T15:52:29.817Z,100098.57
2019-01-15T15:55:57.799Z,100111.58
2019-01-15T15:59:25.673Z,100103.5
2019-01-15T16:02:53.770Z,100088.48
2019-01-15T16:06:22.656Z,100094.25
2019-01-15T16:09:50.528Z,100104.53
2019-01-15T16:13:18.437Z,100115.28
2019-01-15T16:16:47.916Z,100104.87
2019-01-15T16:20:15.202Z,100107.83
2019-01-15T16:23:43.084Z,100097.48
2019-01-15T16:27:10.975Z,100108.79
2019-01-15T16:30:38.875Z,100112.96
2019-01-15T16:34:06.753Z,100083.75
2019-01-15T16:37:35.626Z,100099.81
2019-01-15T16:41:03.520Z,100097.87
2019-01-15T16:44:31.403Z,100107.34
2019-01-15T16:47:59.292Z,100102.68
2019-01-15T16:51:27.200Z,100114.74
2019-01-15T16:54:55.107Z,100120.83
2019-01-15T16:58:23.008Z,100116.59
2019-01-15T17:01:50.937Z,100123.25
2019-01-15T17:05:18.959Z,100114.34
2019-01-15T17:08:46.845Z,100111.29
2019-01-15T17:12:15.439Z,100125.66
2019-01-15T17:15:43.513Z,100123.97
2019-01-15T17:19:11.393Z,100112.39
2019-01-15T17:22:39.286Z,100137.09
2019-01-15T17:26:07.280Z,100136.12
2019-01-15T17:29:35.157Z,100127.77
2019-01-15T17:33:04.405Z,100120.9
2019-01-15T17:36:31.951Z,100154.48
2019-01-15T17:39:59.827Z,100126.84
2019-01-15T17:43:27.718Z,100117.55
2019-01-15T17:46:55.647Z,100141.93
2019-01-15T17:50:23.528Z,100137.76
2019-01-15T17:53:51.422Z,100137.07
2019-01-15T17:57:19.398Z,100137.89
2019-01-15T18:00:47.286Z,100149.97
2019-01-15T18:04:16.455Z,100141.64
2019-01-15T18:07:46.015Z,100143.07
2019-01-15T18:11:13.879Z,100150.32
2019-01-15T18:14:41.774Z,100151.84
2019-01-15T18:18:10.650Z,100154.74
2019-01-15T18:21:38.526Z,100164.43
2019-01-15T18:25:06.427Z,100168.17
2019-01-15T18:28:34.310Z,100163.04
2019-01-15T18:32:03.218Z,100164.18
2019-01-15T18:35:32.104Z,100162.78
2019-01-15T18:39:00.001Z,100170.7
2019-01-15T18:42:27.881Z,100168.62
2019-01-15T18:45:55.779Z,100187.01
2019-01-15T18:49:23.677Z,100184.76
2019-01-15T18:52:51.548Z,100195.85
2019-01-15T18:56:19.435Z,100193.01
2019-01-15T18:59:48.413Z,100186.96
2019-01-15T19:03:17.278Z,100194.72
2019-01-15T19:06:45.175Z,100189.76
2019-01-15T19:10:13.066Z,100212.25
2019-01-15T19:13:41.928Z,100189.65
2019-01-15T19:17:09.820Z,100198.17
2019-01-15T19:20:37.713Z,100219.69
2019-01-15T19:24:05.588Z,100202.18
2019-01-15T19:27:33.472Z,100206.67
2019-01-15T19:31:01.360Z,100214.7
2019-01-15T19:34:29.235Z,100225.7
2019-01-15T19:37:57.132Z,100218.57
2019-01-15T19:41:25.021Z,100243.61
2019-01-15T19:44:52.894Z,100230.43
2019-01-15T19:48:20.781Z,100231.57
2019-01-15T19:51:49.667Z,100240.82
2019-01-15T19:55:17.567Z,100240.67
2019-01-15T19:58:45.452Z,100245.46
2019-01-15T20:02:13.342Z,100252.23
2019-01-15T20:05:41.235Z,100256.83
2019-01-15T20:09:10.102Z,100260.08
2019-01-15T20:12:38.004Z,100259.72
2019-01-15T20:16:05.891Z,100258.1
2019-01-15T20:19:33.769Z,100283.79
2019-01-15T20:23:01.662Z,100266.31
2019-01-15T20:26:29.544Z,100269.61
2019-01-15T20:29:57.412Z,100267.8
2019-01-15T20:33:25.301Z,100252.69
2019-01-15T20:36:53.226Z,100266.67
2019-01-15T20:40:21.093Z,100267.15
2019-01-15T20:43:48.991Z,100280
2019-01-15T20:47:16.878Z,100282.93
2019-01-15T20:50:47.724Z,100291.07
2019-01-15T20:54:15.616Z,100300.56
2019-01-15T20:57:43.498Z,100295.25
2019-01-15T21:01:11.401Z,100300.62
2019-01-15T21:04:39.307Z,100310.42
2019-01-15T21:08:07.212Z,100298.34
2019-01-15T21:11:35.087Z,100304.92
2019-01-15T21:15:02.984Z,100300.89
2019-01-15T21:18:30.870Z,100306.46
2019-01-15T21:21:58.737Z,100313.19
2019-01-15T21:25:26.632Z,100315.56
2019-01-15T21:28:54.515Z,100318.78
2019-01-15T21:32:22.391Z,100317.43
2019-01-15T21:35:51.269Z,100322.25
2019-01-15T21:39:19.168Z,100347.21
2019-01-15T21:42:47.045Z,100316.7
2019-01-15T21:46:15.930Z,100320.19
2019-01-15T21:49:43.818Z,100315.03
2019-01-15T21:53:12.681Z,100307.18
2019-01-15T21:56:40.586Z,100317.34
2019-01-15T22:00:08.473Z,100318.15
2019-01-15T22:03:36.347Z,100319.92
2019-01-15T22:07:05.222Z,100324.9
2019-01-15T22:10:33.108Z,100313.4
2019-01-15T22:14:00.989Z,100328.92
2019-01-15T22:17:28.875Z,100330.11
2019-01-15T22:20:56.773Z,100319.21
2019-01-15T22:24:25.638Z,100335.26
2019-01-15T22:27:53.527Z,100330.01
2019-01-15T22:31:21.417Z,100324.87
2019-01-15T22:34:49.305Z,100318.78
2019-01-15T22:38:17.184Z,100332.26
2019-01-15T22:41:45.079Z,100321.24
2019-01-15T22:45:12.973Z,100313.47
2019-01-15T22:48:40.843Z,100312.87
2019-01-15T22:52:08.724Z,100317.97
2019-01-15T22:55:36.613Z,100319.02
2019-01-15T22:59:04.645Z,100319.03
